createdAt,value
2023-01-29T00:01:46.596Z,3.97
2023-01-29T00:04:13.391Z,3.78
2023-01-29T00:06:40.224Z,3.92
2023-01-29T00:09:07.029Z,3.92
2023-01-29T00:11:33.862Z,3.90
2023-01-29T00:14:00.675Z,3.58
2023-01-29T00:16:27.684Z,3.30
2023-01-29T00:18:54.482Z,3.90
2023-01-29T00:21:22.880Z,3.45
2023-01-29T00:23:50.633Z,3.17
2023-01-29T00:26:17.694Z,3.55
2023-01-29T00:28:47.906Z,4.28
2023-01-29T00:31:25.350Z,3.83
2023-01-29T00:33:52.511Z,3.78
2023-01-29T00:36:21.134Z,3.60
2023-01-29T00:38:54.712Z,4.07
2023-01-29T00:41:41.925Z,4.57
2023-01-29T00:44:27.250Z,4.20
2023-01-29T00:46:54.833Z,4.50
2023-01-29T00:49:21.831Z,4.75
2023-01-29T00:52:08.946Z,4.43
2023-01-29T00:54:36.368Z,4.53
2023-01-29T00:57:04.466Z,4.47
2023-01-29T00:59:32.070Z,4.80
2023-01-29T01:02:17.591Z,4.78
2023-01-29T01:04:44.460Z,4.40
2023-01-29T01:09:56.115Z,4.32
2023-01-29T01:12:23.248Z,4.35
2023-01-29T01:14:50.109Z,4.43
2023-01-29T01:17:17.242Z,4.85
2023-01-29T01:19:44.133Z,4.47
2023-01-29T01:22:11.321Z,4.25
2023-01-29T01:24:38.565Z,5.20
2023-01-29T01:27:06.029Z,5.10
2023-01-29T01:29:33.380Z,4.00
2023-01-29T01:32:00.620Z,4.75
2023-01-29T01:34:27.937Z,5.15
2023-01-29T01:36:58.448Z,4.68
2023-01-29T01:39:25.404Z,4.75
2023-01-29T01:41:55.913Z,4.45
2023-01-29T01:44:55.880Z,5.13
2023-01-29T01:47:35.206Z,4.82
2023-01-29T01:50:09.398Z,4.85
2023-01-29T01:55:06.925Z,4.22
2023-01-29T01:57:34.060Z,4.40
2023-01-29T02:00:12.856Z,4.35
2023-01-29T02:03:03.191Z,3.83
2023-01-29T02:05:51.498Z,4.00
2023-01-29T02:09:08.004Z,4.20
2023-01-29T02:11:36.904Z,3.80
2023-01-29T02:14:04.274Z,3.97
2023-01-29T02:16:33.741Z,4.97
2023-01-29T02:19:02.723Z,4.38
2023-01-29T02:21:55.096Z,4.55
2023-01-29T02:24:58.685Z,4.15
2023-01-29T02:27:41.022Z,3.55
2023-01-29T02:30:31.201Z,3.90
2023-01-29T02:33:22.497Z,4.18
2023-01-29T02:35:57.998Z,4.00
2023-01-29T02:38:30.661Z,4.50
2023-01-29T02:41:15.278Z,4.50
2023-01-29T02:43:47.413Z,4.30
2023-01-29T02:46:32.268Z,4.10
2023-01-29T02:49:10.270Z,4.28
2023-01-29T02:51:57.324Z,4.28
2023-01-29T02:54:39.564Z,4.07
2023-01-29T02:57:36.585Z,4.45
2023-01-29T03:00:07.060Z,4.22
2023-01-29T03:02:49.104Z,3.90
2023-01-29T03:05:23.912Z,4.40
2023-01-29T03:07:56.540Z,3.40
2023-01-29T03:10:37.141Z,4.30
2023-01-29T03:13:16.939Z,4.25
2023-01-29T03:15:51.323Z,4.03
2023-01-29T03:18:43.728Z,3.90
2023-01-29T03:21:39.212Z,3.97
2023-01-29T03:24:28.180Z,4.40
2023-01-29T03:27:15.339Z,4.13
2023-01-29T03:30:05.287Z,3.88
2023-01-29T03:32:52.607Z,4.10
2023-01-29T03:35:33.425Z,4.18
2023-01-29T03:38:01.197Z,4.47
2023-01-29T03:40:35.266Z,3.92
2023-01-29T03:43:20.274Z,4.32
2023-01-29T03:46:19.071Z,3.72
2023-01-29T03:49:03.420Z,4.05
2023-01-29T03:51:42.997Z,3.88
2023-01-29T03:54:15.664Z,4.28
2023-01-29T03:56:56.330Z,4.22
2023-01-29T03:59:41.177Z,3.83
2023-01-29T04:02:30.232Z,3.95
2023-01-29T04:05:06.042Z,3.92
2023-01-29T04:07:38.533Z,3.63
2023-01-29T04:10:21.064Z,3.78
2023-01-29T04:13:02.153Z,4.00
2023-01-29T04:15:34.208Z,4.63
2023-01-29T04:18:02.089Z,3.70
2023-01-29T04:20:49.685Z,3.85
2023-01-29T04:23:34.867Z,3.75
2023-01-29T04:26:21.823Z,3.42
2023-01-29T04:29:05.560Z,3.63
2023-01-29T04:31:53.257Z,3.75
2023-01-29T04:34:37.823Z,4.30
2023-01-29T04:42:40.633Z,2.53
2023-01-29T04:45:39.394Z,3.55
2023-01-29T04:48:37.585Z,3.55
2023-01-29T04:51:14.434Z,3.95
2023-01-29T04:53:50.389Z,3.30
2023-01-29T04:56:28.358Z,3.85
2023-01-29T04:59:13.049Z,3.85
2023-01-29T05:01:39.932Z,3.92
2023-01-29T05:04:11.613Z,3.63
2023-01-29T05:06:40.265Z,3.42
2023-01-29T05:09:08.295Z,3.90
2023-01-29T05:11:36.828Z,3.45
2023-01-29T05:14:06.668Z,4.03
2023-01-29T05:16:42.221Z,3.40
2023-01-29T05:19:14.698Z,3.40
2023-01-29T05:21:44.637Z,3.40
2023-01-29T05:24:19.608Z,3.28
2023-01-29T05:27:07.056Z,3.33
2023-01-29T05:29:33.882Z,3.53
2023-01-29T05:32:00.803Z,3.88
2023-01-29T05:34:27.752Z,3.78
2023-01-29T05:36:54.580Z,3.38
2023-01-29T05:39:21.584Z,3.92
2023-01-29T05:41:48.426Z,3.63
2023-01-29T05:44:15.404Z,3.63
2023-01-29T05:46:42.465Z,3.78
2023-01-29T05:49:09.710Z,3.47
2023-01-29T05:51:36.943Z,3.53
2023-01-29T05:54:04.011Z,3.67
2023-01-29T05:56:30.836Z,3.80
2023-01-29T05:58:57.657Z,3.80
2023-01-29T06:01:26.268Z,3.47
2023-01-29T06:03:53.060Z,4.00
2023-01-29T06:06:19.872Z,3.72
2023-01-29T06:08:46.699Z,3.70
2023-01-29T06:11:14.662Z,3.33
2023-01-29T06:13:41.572Z,3.75
2023-01-29T06:16:09.629Z,3.67
2023-01-29T06:18:37.858Z,3.65
2023-01-29T06:21:06.276Z,4.07
2023-01-29T06:23:33.428Z,3.72
2023-01-29T06:26:05.110Z,3.50
2023-01-29T06:28:32.262Z,3.95
2023-01-29T06:31:11.995Z,3.60
2023-01-29T06:33:47.206Z,3.20
2023-01-29T06:36:14.163Z,3.60
2023-01-29T06:38:41.553Z,3.33
2023-01-29T06:41:11.095Z,3.20
2023-01-29T06:43:39.030Z,3.50
2023-01-29T06:46:08.125Z,3.65
2023-01-29T06:48:35.806Z,3.88
2023-01-29T06:51:04.636Z,3.67
2023-01-29T06:53:32.009Z,4.00
2023-01-29T06:55:58.859Z,3.33
2023-01-29T06:58:25.947Z,3.63
2023-01-29T07:00:53.201Z,3.75
2023-01-29T07:03:20.211Z,3.50
2023-01-29T07:05:53.895Z,3.58
2023-01-29T07:08:22.726Z,3.45
2023-01-29T07:10:50.627Z,3.60
2023-01-29T07:13:18.571Z,4.90
2023-01-29T07:15:45.334Z,4.05
2023-01-29T07:18:12.252Z,4.28
2023-01-29T07:20:40.933Z,4.10
2023-01-29T07:23:11.270Z,3.95
2023-01-29T07:25:38.115Z,3.85
2023-01-29T07:28:05.672Z,4.13
2023-01-29T07:30:33.132Z,4.65
2023-01-29T07:33:08.242Z,4.20
2023-01-29T07:35:40.152Z,4.18
2023-01-29T07:38:11.411Z,3.80
2023-01-29T07:40:38.449Z,3.78
2023-01-29T07:43:08.674Z,3.78
2023-01-29T07:45:39.873Z,3.90
2023-01-29T07:48:10.647Z,3.35
2023-01-29T07:50:38.582Z,3.80
2023-01-29T07:53:05.471Z,3.95
2023-01-29T07:55:33.512Z,3.72
2023-01-29T07:58:04.009Z,4.32
2023-01-29T08:00:31.641Z,4.05
2023-01-29T08:03:06.814Z,4.90
2023-01-29T08:05:34.299Z,4.05
2023-01-29T08:08:06.885Z,4.13
2023-01-29T08:10:38.676Z,3.80
2023-01-29T08:13:06.306Z,4.95
2023-01-29T08:15:33.639Z,4.43
2023-01-29T08:18:02.599Z,3.95
2023-01-29T08:20:29.568Z,4.60
2023-01-29T08:23:05.057Z,4.07
2023-01-29T08:25:32.683Z,3.72
2023-01-29T08:28:00.563Z,3.90
2023-01-29T08:30:32.920Z,4.05
2023-01-29T08:32:59.974Z,4.82
2023-01-29T08:35:27.439Z,4.65
2023-01-29T08:37:59.766Z,4.78
2023-01-29T08:40:32.566Z,4.68
2023-01-29T08:43:06.179Z,4.80
2023-01-29T08:45:35.965Z,4.32
2023-01-29T08:48:03.078Z,5.18
2023-01-29T08:50:34.856Z,4.28
2023-01-29T08:53:04.148Z,4.63
2023-01-29T08:55:30.949Z,4.55
2023-01-29T08:57:57.769Z,5.97
2023-01-29T09:00:24.835Z,5.07
2023-01-29T09:02:51.873Z,4.40
2023-01-29T09:05:19.035Z,4.30
2023-01-29T09:07:46.169Z,4.57
2023-01-29T09:10:13.512Z,4.38
2023-01-29T09:12:40.376Z,4.53
2023-01-29T09:15:07.868Z,4.53
2023-01-29T09:17:34.720Z,4.93
2023-01-29T09:20:01.514Z,4.85
2023-01-29T09:22:29.017Z,5.65
2023-01-29T09:24:55.880Z,4.78
2023-01-29T09:27:22.803Z,5.35
2023-01-29T09:29:49.612Z,4.55
2023-01-29T09:32:23.211Z,4.90
2023-01-29T09:34:58.868Z,5.45
2023-01-29T09:37:26.087Z,5.03
2023-01-29T09:39:52.901Z,5.50
2023-01-29T09:42:31.489Z,5.22
2023-01-29T09:45:19.930Z,5.38
2023-01-29T09:47:48.791Z,5.13
2023-01-29T09:50:20.821Z,5.22
2023-01-29T09:52:53.947Z,4.72
2023-01-29T09:55:37.190Z,5.07
2023-01-29T09:58:27.376Z,4.82
2023-01-29T10:01:30.677Z,4.80
2023-01-29T10:05:04.891Z,4.82
2023-01-29T10:08:13.564Z,4.53
2023-01-29T10:11:12.938Z,4.82
2023-01-29T10:13:49.908Z,4.88
2023-01-29T10:16:31.943Z,5.20
2023-01-29T10:19:17.592Z,5.28
2023-01-29T10:21:58.385Z,5.95
2023-01-29T10:24:45.052Z,5.50
2023-01-29T10:27:15.507Z,5.40
2023-01-29T10:29:44.272Z,5.32
2023-01-29T10:32:20.831Z,6.22
2023-01-29T10:34:59.906Z,5.10
2023-01-29T10:37:43.601Z,4.72
2023-01-29T10:40:29.380Z,5.80
2023-01-29T10:43:27.376Z,5.38
2023-01-29T10:46:15.318Z,5.28
2023-01-29T10:49:04.634Z,5.22
2023-01-29T10:51:51.170Z,5.55
2023-01-29T10:54:38.851Z,5.28
2023-01-29T10:57:33.613Z,4.50
2023-01-29T11:00:23.864Z,5.43
2023-01-29T11:02:52.320Z,5.45
2023-01-29T11:05:40.371Z,5.30
2023-01-29T11:08:16.346Z,4.95
2023-01-29T11:11:06.723Z,5.43
2023-01-29T11:13:40.472Z,5.10
2023-01-29T11:16:09.313Z,5.15
2023-01-29T11:18:55.076Z,5.25
2023-01-29T11:21:22.953Z,6.32
2023-01-29T11:23:51.172Z,5.45
2023-01-29T11:26:25.018Z,6.15
2023-01-29T11:28:56.895Z,5.53
2023-01-29T11:31:46.070Z,5.43
2023-01-29T11:34:21.749Z,5.65
2023-01-29T11:37:03.798Z,6.28
2023-01-29T11:39:32.235Z,6.43
2023-01-29T11:42:05.140Z,6.50
2023-01-29T11:44:39.361Z,5.18
2023-01-29T11:49:36.237Z,5.88
2023-01-29T11:52:07.841Z,5.53
2023-01-29T11:54:44.334Z,5.15
2023-01-29T11:57:24.397Z,5.65
2023-01-29T11:59:54.078Z,5.60
2023-01-29T12:02:30.847Z,5.50
2023-01-29T12:05:05.872Z,4.97
2023-01-29T12:07:33.826Z,5.32
2023-01-29T12:10:00.971Z,5.88
2023-01-29T12:12:31.293Z,5.38
2023-01-29T12:15:16.315Z,5.20
2023-01-29T12:17:49.353Z,5.70
2023-01-29T12:20:24.527Z,6.85
2023-01-29T12:23:04.117Z,6.03
2023-01-29T12:25:53.720Z,5.97
2023-01-29T12:28:42.383Z,6.15
2023-01-29T12:31:09.502Z,5.72
2023-01-29T12:33:53.711Z,5.57
2023-01-29T12:36:52.907Z,4.97
2023-01-29T12:39:20.772Z,4.80
2023-01-29T12:41:56.786Z,5.45
2023-01-29T12:44:37.060Z,4.97
2023-01-29T12:47:07.393Z,5.75
2023-01-29T12:49:37.277Z,5.28
2023-01-29T12:52:07.063Z,4.88
2023-01-29T12:54:42.294Z,4.47
2023-01-29T12:57:23.186Z,4.70
2023-01-29T12:59:56.610Z,4.57
2023-01-29T13:02:35.324Z,4.95
2023-01-29T13:05:19.562Z,5.38
2023-01-29T13:07:52.024Z,4.97
2023-01-29T13:10:24.617Z,5.45
2023-01-29T13:13:04.183Z,5.45
2023-01-29T13:15:36.357Z,5.55
2023-01-29T13:18:30.832Z,5.65
2023-01-29T13:20:58.530Z,5.28
2023-01-29T13:23:47.380Z,5.13
2023-01-29T13:26:19.000Z,5.60
2023-01-29T13:28:46.870Z,5.68
2023-01-29T13:31:34.713Z,5.10
2023-01-29T13:34:15.228Z,6.35
2023-01-29T13:36:51.837Z,6.97
2023-01-29T13:39:24.267Z,7.07
2023-01-29T13:41:52.866Z,7.07
2023-01-29T13:44:37.791Z,7.60
2023-01-29T13:47:10.691Z,8.95
2023-01-29T13:50:15.713Z,10.23
2023-01-29T13:53:26.552Z,9.20
2023-01-29T13:55:53.428Z,7.63
2023-01-29T13:58:32.421Z,6.82
2023-01-29T14:01:01.068Z,7.53
2023-01-29T14:03:29.920Z,7.45
2023-01-29T14:06:02.924Z,7.00
2023-01-29T14:08:37.212Z,7.95
2023-01-29T14:11:16.241Z,6.65
2023-01-29T14:13:47.557Z,6.65
2023-01-29T14:16:14.522Z,6.78
2023-01-29T14:18:49.047Z,6.60
2023-01-29T14:21:28.388Z,6.40
2023-01-29T14:24:20.949Z,6.32
2023-01-29T14:26:53.872Z,6.45
2023-01-29T14:29:34.697Z,6.35
2023-01-29T14:32:07.980Z,5.88
2023-01-29T14:35:01.224Z,6.00
2023-01-29T14:37:38.795Z,5.93
2023-01-29T14:40:18.704Z,6.38
2023-01-29T14:43:02.438Z,6.65
2023-01-29T14:45:37.316Z,6.40
2023-01-29T14:48:19.927Z,6.00
2023-01-29T14:50:49.607Z,6.47
2023-01-29T14:53:28.150Z,6.03
2023-01-29T14:55:58.001Z,5.90
2023-01-29T14:58:48.134Z,5.55
2023-01-29T15:01:37.750Z,5.47
2023-01-29T15:04:05.768Z,6.10
2023-01-29T15:06:42.832Z,5.30
2023-01-29T15:09:32.769Z,6.00
2023-01-29T15:12:11.881Z,5.60
2023-01-29T15:14:47.038Z,6.45
2023-01-29T15:17:36.629Z,6.40
2023-01-29T15:20:29.134Z,6.55
2023-01-29T15:22:56.291Z,6.70
2023-01-29T15:25:23.616Z,6.93
2023-01-29T15:27:50.711Z,7.20
2023-01-29T15:30:28.174Z,7.13
2023-01-29T15:32:56.465Z,7.25
2023-01-29T15:35:30.743Z,7.28
2023-01-29T15:38:22.965Z,6.95
2023-01-29T15:41:00.930Z,7.53
2023-01-29T15:43:31.098Z,7.22
2023-01-29T15:46:10.418Z,7.63
2023-01-29T15:48:41.461Z,7.72
2023-01-29T15:51:12.020Z,7.30
2023-01-29T15:53:48.310Z,7.07
2023-01-29T15:56:19.294Z,7.93
2023-01-29T15:58:50.859Z,8.25
2023-01-29T16:01:18.096Z,8.52
2023-01-29T16:03:45.153Z,7.68
2023-01-29T16:06:12.312Z,8.40
2023-01-29T16:08:40.596Z,7.85
2023-01-29T16:11:08.566Z,8.80
2023-01-29T16:13:39.974Z,9.65
2023-01-29T16:16:21.041Z,8.80
2023-01-29T16:18:59.824Z,9.32
2023-01-29T16:21:39.972Z,9.35
2023-01-29T16:24:15.826Z,8.93
2023-01-29T16:26:45.829Z,9.40
2023-01-29T16:29:15.882Z,9.63
2023-01-29T16:31:45.759Z,8.70
2023-01-29T16:34:33.082Z,9.43
2023-01-29T16:37:02.454Z,8.88
2023-01-29T16:39:37.003Z,9.18
2023-01-29T16:42:10.666Z,9.10
2023-01-29T16:44:39.916Z,9.15
2023-01-29T16:47:33.097Z,9.23
2023-01-29T16:50:01.981Z,8.48
2023-01-29T16:52:34.097Z,9.50
2023-01-29T16:55:22.172Z,9.77
2023-01-29T16:57:54.056Z,9.43
2023-01-29T17:00:29.220Z,8.55
2023-01-29T17:03:02.005Z,8.70
2023-01-29T17:05:31.576Z,8.55
2023-01-29T17:07:59.694Z,8.32
2023-01-29T17:10:28.901Z,8.35
2023-01-29T17:12:57.610Z,7.70
2023-01-29T17:15:35.038Z,10.00
2023-01-29T17:18:03.084Z,11.30
2023-01-29T17:20:30.464Z,12.32
2023-01-29T17:22:57.331Z,15.07
2023-01-29T17:25:24.242Z,14.57
2023-01-29T17:27:53.921Z,15.23
2023-01-29T17:30:31.138Z,14.77
2023-01-29T17:32:57.966Z,13.00
2023-01-29T17:35:24.865Z,11.95
2023-01-29T17:37:51.695Z,10.73
2023-01-29T17:40:28.132Z,11.05
2023-01-29T17:42:54.996Z,8.25
2023-01-29T17:45:21.783Z,8.95
2023-01-29T17:47:48.576Z,7.93
2023-01-29T17:50:23.371Z,8.05
2023-01-29T17:52:50.339Z,7.45
2023-01-29T17:55:17.798Z,9.45
2023-01-29T17:57:44.839Z,10.75
2023-01-29T18:00:31.891Z,9.55
2023-01-29T18:03:02.133Z,9.68
2023-01-29T18:05:29.663Z,9.27
2023-01-29T18:07:56.558Z,9.18
2023-01-29T18:10:23.555Z,8.48
2023-01-29T18:12:50.676Z,8.05
2023-01-29T18:15:18.056Z,8.60
2023-01-29T18:17:45.282Z,9.40
2023-01-29T18:20:25.678Z,8.55
2023-01-29T18:22:53.083Z,8.52
2023-01-29T18:25:20.501Z,8.30
2023-01-29T18:27:47.769Z,9.77
2023-01-29T18:30:15.095Z,10.82
2023-01-29T18:32:41.958Z,8.70
2023-01-29T18:35:09.324Z,9.82
2023-01-29T18:37:36.331Z,8.73
2023-01-29T18:40:03.234Z,9.32
2023-01-29T18:42:33.108Z,8.27
2023-01-29T18:44:59.905Z,8.15
2023-01-29T18:47:26.696Z,9.38
2023-01-29T18:49:55.061Z,9.82
2023-01-29T18:52:21.911Z,9.50
2023-01-29T18:54:49.707Z,9.32
2023-01-29T18:58:26.870Z,10.18
2023-01-29T19:00:04.449Z,9.50
2023-01-29T19:02:31.513Z,9.60
2023-01-29T19:04:58.413Z,11.27
2023-01-29T19:07:25.336Z,10.35
2023-01-29T19:09:52.116Z,10.43
2023-01-29T19:12:19.194Z,9.65
2023-01-29T19:14:46.307Z,8.95
2023-01-29T19:17:13.276Z,9.38
2023-01-29T19:19:40.135Z,9.48
2023-01-29T19:22:08.035Z,9.98
2023-01-29T19:24:39.313Z,9.82
2023-01-29T19:27:09.021Z,9.88
2023-01-29T19:29:36.325Z,9.70
2023-01-29T19:32:03.227Z,10.75
2023-01-29T19:34:30.097Z,9.68
2023-01-29T19:36:56.865Z,10.18
2023-01-29T19:39:23.866Z,9.60
2023-01-29T19:41:50.968Z,10.20
2023-01-29T19:44:17.755Z,9.98
2023-01-29T19:46:46.798Z,9.73
2023-01-29T19:49:13.986Z,8.45
2023-01-29T19:51:41.420Z,10.00
2023-01-29T19:54:09.465Z,10.05
2023-01-29T19:56:36.588Z,9.38
2023-01-29T19:59:05.049Z,9.48
2023-01-29T20:01:31.832Z,8.35
2023-01-29T20:03:58.628Z,9.20
2023-01-29T20:06:30.946Z,8.93
2023-01-29T20:08:58.201Z,9.10
2023-01-29T20:11:25.315Z,9.48
2023-01-29T20:13:53.462Z,10.23
2023-01-29T20:16:22.130Z,8.35
2023-01-29T20:18:49.272Z,9.30
2023-01-29T20:21:22.710Z,8.57
2023-01-29T20:23:50.755Z,6.47
2023-01-29T20:26:18.204Z,10.15
2023-01-29T20:28:49.245Z,8.13
2023-01-29T20:31:16.842Z,8.40
2023-01-29T20:33:44.269Z,9.15
2023-01-29T20:36:15.079Z,8.40
2023-01-29T20:38:41.970Z,9.15
2023-01-29T20:41:14.698Z,8.98
2023-01-29T20:43:42.805Z,9.35
2023-01-29T20:46:09.970Z,9.20
2023-01-29T20:48:36.979Z,9.73
2023-01-29T20:51:05.286Z,9.48
2023-01-29T20:53:32.463Z,9.55
2023-01-29T20:55:59.366Z,8.90
2023-01-29T20:58:26.382Z,8.82
2023-01-29T21:00:53.211Z,9.15
2023-01-29T21:03:20.174Z,8.95
2023-01-29T21:05:47.037Z,9.70
2023-01-29T21:08:13.831Z,9.80
2023-01-29T21:10:43.090Z,9.20
2023-01-29T21:13:10.174Z,8.80
2023-01-29T21:15:36.982Z,9.30
2023-01-29T21:18:06.000Z,9.43
2023-01-29T21:20:32.903Z,10.32
2023-01-29T21:22:59.766Z,9.32
2023-01-29T21:25:26.620Z,9.80
2023-01-29T21:27:53.399Z,10.18
2023-01-29T21:30:20.503Z,8.80
2023-01-29T21:32:47.567Z,8.75
2023-01-29T21:35:15.047Z,8.85
2023-01-29T21:37:42.240Z,8.18
2023-01-29T21:40:09.854Z,9.65
2023-01-29T21:42:55.063Z,8.93
2023-01-29T21:45:21.847Z,9.15
2023-01-29T21:47:48.611Z,9.18
2023-01-29T21:50:16.282Z,9.07
2023-01-29T21:52:43.226Z,10.57
2023-01-29T21:55:10.056Z,10.45
2023-01-29T21:57:36.929Z,10.43
2023-01-29T22:00:04.229Z,11.13
2023-01-29T22:02:32.169Z,10.40
2023-01-29T22:05:17.768Z,10.20
2023-01-29T22:07:45.405Z,10.45
2023-01-29T22:10:12.478Z,9.82
2023-01-29T22:12:39.987Z,10.60
2023-01-29T22:15:08.284Z,8.98
2023-01-29T22:17:35.394Z,8.65
2023-01-29T22:20:02.849Z,10.93
2023-01-29T22:22:29.687Z,11.05
2023-01-29T22:24:58.786Z,10.13
2023-01-29T22:27:25.836Z,10.88
2023-01-29T22:29:52.673Z,10.52
2023-01-29T22:32:19.495Z,9.63
2023-01-29T22:34:46.618Z,10.68
2023-01-29T22:37:13.466Z,10.35
2023-01-29T22:39:40.275Z,11.40
2023-01-29T22:42:07.064Z,9.98
2023-01-29T22:44:34.097Z,12.00
2023-01-29T22:47:01.235Z,11.52
2023-01-29T22:49:30.372Z,11.88
2023-01-29T22:52:12.611Z,10.43
2023-01-29T22:54:41.569Z,10.88
2023-01-29T22:57:13.506Z,10.65
2023-01-29T22:59:40.811Z,9.75
2023-01-29T23:02:08.254Z,10.85
2023-01-29T23:04:35.183Z,11.48
2023-01-29T23:07:01.974Z,11.10
2023-01-29T23:09:29.176Z,9.20
2023-01-29T23:11:56.005Z,11.40
2023-01-29T23:14:22.790Z,10.13
2023-01-29T23:16:49.852Z,10.45
2023-01-29T23:19:16.646Z,10.60
2023-01-29T23:21:43.488Z,10.93
2023-01-29T23:24:10.697Z,9.98
2023-01-29T23:26:56.059Z,10.27
2023-01-29T23:29:22.951Z,9.38
2023-01-29T23:31:49.873Z,10.88
2023-01-29T23:34:16.942Z,11.38
2023-01-29T23:36:44.115Z,9.07
2023-01-29T23:39:10.999Z,10.10
2023-01-29T23:41:38.015Z,9.35
2023-01-29T23:44:04.946Z,9.13
2023-01-29T23:46:32.191Z,10.88
2023-01-29T23:48:59.081Z,11.35
2023-01-29T23:51:26.241Z,10.80
2023-01-29T23:53:53.138Z,10.52
2023-01-29T23:56:20.266Z,11.30
2023-01-29T23:58:47.217Z,10.80
